| Date | Time | Temp. (oF) | Dew Point (oF) | Rel. Hum. (%) | Press. (in.) | Wind Dir. | Wind Speed (mph) | Hourly Rainfall (in.) |
|
|---|---|---|---|---|---|---|---|---|---|
| 1 | 04/22 | 00:00 | 50 | 30 | 48 | 29.76 | SSW | 0 | 0.00 |
| 2 | 04/21 | 23:00 | 51 | 32 | 50 | 29.76 | S | 2 | 0.00 |
| 3 | 04/21 | 22:00 | 53 | 33 | 47 | 29.75 | S | 0 | 0.00 |
| 4 | 04/21 | 21:00 | 55 | 30 | 39 | 29.74 | SSW | 2 | 0.00 |
| 5 | 04/21 | 20:00 | 58 | 30 | 35 | 29.72 | SW | 4 | 0.00 |
| 6 | 04/21 | 19:00 | 60 | 31 | 34 | 29.70 | W | 0 | 0.00 |
| 7 | 04/21 | 18:00 | 60 | 30 | 33 | 29.70 | W | 11 | 0.00 |
| 8 | 04/21 | 17:00 | 61 | 32 | 34 | 29.68 | SSW | 5 | 0.00 |
| 9 | 04/21 | 16:00 | 61 | 32 | 34 | 29.67 | SSW | 9 | 0.00 |
| 10 | 04/21 | 15:00 | 62 | 35 | 37 | 29.69 | WSW | 2 | 0.00 |
| 11 | 04/21 | 14:00 | 60 | 37 | 44 | 29.71 | SW | 6 | 0.00 |
| 12 | 04/21 | 13:00 | 59 | 34 | 40 | 29.71 | W | 16 | 0.00 |
| 13 | 04/21 | 12:00 | 59 | 38 | 46 | 29.71 | SSW | 13 | 0.00 |
| 14 | 04/21 | 11:00 | 57 | 36 | 47 | 29.72 | S | 12 | 0.00 |
| 15 | 04/21 | 10:00 | 57 | 37 | 49 | 29.71 | WSW | 10 | 0.00 |
| 16 | 04/21 | 09:00 | 54 | 41 | 62 | 29.70 | W | 2 | 0.00 |
| 17 | 04/21 | 08:00 | 53 | 43 | 71 | 29.69 | W | 7 | 0.00 |
| 18 | 04/21 | 07:00 | 52 | 48 | 88 | 29.69 | W | 3 | 0.00 |
| 19 | 04/21 | 06:00 | 53 | 49 | 88 | 29.65 | WNW | 9 | 0.00 |
| 20 | 04/21 | 05:00 | 55 | 53 | 94 | 29.61 | SW | 4 | 0.03 |
| 21 | 04/21 | 04:00 | 56 | 53 | 92 | 29.59 | SSW | 4 | 0.00 |
| 22 | 04/21 | 03:00 | 56 | 53 | 92 | 29.55 | SSE | 0 | 0.01 |
| 23 | 04/21 | 02:00 | 56 | 54 | 93 | 29.56 | S | 0 | 0.00 |
| 24 | 04/21 | 01:00 | 57 | 54 | 93 | 29.57 | NNE | 0 | 0.23 |